Ardmore Capella — V7WK3 — position and weather

sailwx.info

Track history (hours):
 
Tides and Currents Weather Stations Pressure Air Temp Water Temp Dewpoint Dewpoint Depression Visibility Wind Speed Wind Dir Waves Ship Positions

Ardmore Capella

Last reported at 2018-Apr-20 11:37 UTC. Time now 2018-Apr-21 15:34 UTC.
Position N 37°45' E 024°18'.

Length 144 m; draft 6 m.

Type: Ship. MMSI: 538004321.

Date/timePositionNaut miles runAvg speedWind from/ knotsBaromVisibWave heightAir tempDewpointWater temp
2018-Apr-20 11:37N 37°45' E 024°18'1711.0
2018-Apr-20 10:03N 37°36' E 023°59'011.3
2018-Apr-20 10:00N 37°36' E 023°58'611.5
2018-Apr-20 09:30N 37°37' E 023°51'611.5
2018-Apr-20 09:00N 37°38' E 023°44'611.9
2018-Apr-20 08:30N 37°43' E 023°40'612.0
2018-Apr-20 08:00N 37°49' E 023°37'611.7
2018-Apr-20 07:30N 37°54' E 023°37'3 5.7
2018-Apr-20 06:59N 37°57' E 023°36'0 0.0
2018-Apr-20 06:29N 37°57' E 023°36'0 0.0
2018-Apr-20 05:59N 37°57' E 023°36'0 0.0
2018-Apr-20 05:29N 37°57' E 023°36'0 0.0
2018-Apr-20 04:59N 37°57' E 023°36'0 0.0
2018-Apr-20 04:29N 37°57' E 023°36'0 0.0
2018-Apr-20 03:59N 37°57' E 023°36'0 0.0
2018-Apr-20 03:29N 37°57' E 023°36'0 0.0
2018-Apr-20 02:59N 37°57' E 023°36'0 0.0
2018-Apr-20 02:29N 37°57' E 023°36'0 0.0
2018-Apr-20 01:59N 37°57' E 023°36'0 0.0
2018-Apr-20 01:23N 37°57' E 023°36'0 0.0
2018-Apr-20 00:59N 37°57' E 023°36'0 0.0
2018-Apr-20 00:26N 37°57' E 023°36'0 0.0
2018-Apr-19 23:59N 37°57' E 023°36'0 0.0
2018-Apr-19 23:29N 37°57' E 023°36'0 0.0
2018-Apr-19 22:59N 37°57' E 023°36'0 0.0
2018-Apr-19 22:26N 37°57' E 023°36'0 0.0
2018-Apr-19 21:59N 37°57' E 023°36'0 0.0
2018-Apr-19 21:29N 37°57' E 023°36'0 0.0
2018-Apr-19 20:59N 37°57' E 023°36'0 0.0
2018-Apr-19 20:26N 37°57' E 023°36'0 0.0
2018-Apr-19 19:59N 37°57' E 023°36'0 0.0
2018-Apr-19 19:29N 37°57' E 023°36'0 0.0
2018-Apr-19 18:56N 37°57' E 023°36'0 0.0
2018-Apr-19 18:29N 37°57' E 023°36'0 0.0
2018-Apr-19 17:59N 37°57' E 023°36'0 0.0
2018-Apr-19 17:29N 37°57' E 023°36'0 0.0
2018-Apr-19 16:59N 37°57' E 023°36'0 0.0
2018-Apr-19 16:29N 37°57' E 023°36'0 0.0
2018-Apr-19 15:59N 37°57' E 023°36'0 0.0
2018-Apr-19 15:29N 37°57' E 023°36'0 0.0
2018-Apr-19 14:59N 37°57' E 023°36'0 0.0
2018-Apr-19 14:29N 37°57' E 023°36'0 0.0
2018-Apr-19 13:59N 37°57' E 023°36'0 0.0
2018-Apr-19 13:29N 37°57' E 023°36'0 0.0
2018-Apr-19 12:59N 37°57' E 023°36'0 0.0
2018-Apr-19 12:29N 37°57' E 023°36'0 0.0
2018-Apr-19 11:53N 37°57' E 023°36'0 0.0
2018-Apr-19 11:29N 37°57' E 023°36'0 0.0
2018-Apr-19 10:56N 37°57' E 023°36'0 0.0
2018-Apr-19 10:29N 37°57' E 023°36'0 0.0
2018-Apr-19 09:56N 37°57' E 023°36'0 0.0
2018-Apr-19 09:29N 37°57' E 023°36'0 0.0
2018-Apr-19 08:56N 37°57' E 023°36'0 0.0
2018-Apr-19 08:29N 37°57' E 023°36'0 0.0
2018-Apr-19 07:59N 37°57' E 023°36'0 0.0
2018-Apr-19 07:26N 37°57' E 023°36'0 0.0
2018-Apr-19 06:59N 37°57' E 023°36'0 0.0
2018-Apr-19 06:30N 37°57' E 023°36'1 2.3
2018-Apr-19 06:00N 37°56' E 023°36'3 6.5
2018-Apr-19 05:30N 37°53' E 023°37'2 3.3
2018-Apr-19 05:00N 37°52' E 023°39'0 0.9
2018-Apr-19 04:30N 37°53' E 023°39'0 0.8
2018-Apr-19 04:00N 37°53' E 023°38'0 0.7
2018-Apr-19 03:30N 37°53' E 023°38'0 0.6
2018-Apr-19 03:00N 37°54' E 023°38'0 1.0
2018-Apr-19 02:30N 37°53' E 023°38'2 4.0
2018-Apr-19 02:00N 37°51' E 023°39'3 6.6
2018-Apr-19 01:30N 37°48' E 023°41'3 6.6
2018-Apr-19 01:00N 37°45' E 023°42'3 6.7
2018-Apr-19 00:30N 37°42' E 023°44'713.2
2018-Apr-19 00:00N 37°36' E 023°44'815.8
2018-Apr-18 23:30N 37°28' E 023°42'816.1
2018-Apr-18 23:00N 37°20' E 023°38'816.0
2018-Apr-18 22:30N 37°13' E 023°34'816.3
2018-Apr-18 22:00N 37°05' E 023°30'39918.1
2018-Apr-17 23:59N 36°29' E 015°14'1020.0
2018-Apr-17 23:30N 36°28' E 015°02'1020.3
2018-Apr-17 23:00N 36°28' E 014°49'1020.3
2018-Apr-17 22:30N 36°28' E 014°37'1020.2
2018-Apr-17 22:00N 36°31' E 014°25'1020.2
2018-Apr-17 21:30N 36°34' E 014°13'1020.0
2018-Apr-17 21:00N 36°37' E 014°01'1020.1
2018-Apr-17 20:30N 36°40' E 013°49'1120.8
2018-Apr-17 20:00N 36°42' E 013°36'1020.1
2018-Apr-17 19:30N 36°45' E 013°24'917.9
2018-Apr-17 19:00N 36°47' E 013°13'1019.7
2018-Apr-17 18:29N 36°50' E 013°01'1322.1
2018-Apr-17 17:55N 36°54' E 012°46'716.8
2018-Apr-17 17:30N 36°56' E 012°38'1020.8
2018-Apr-17 17:00N 36°58' E 012°25'83719.3
2018-Apr-15 21:43N 36°03' W 004°54'921.1
2018-Apr-15 21:16N 36°01' W 005°06'620.7
2018-Apr-15 20:58N 35°59' W 005°13'4 9.4
2018-Apr-15 20:30N 35°58' W 005°18'815.3
2018-Apr-15 20:00N 35°56' W 005°27'22618.6
2018-Apr-15 07:53N 37°29' W 009°44'820.0
2018-Apr-15 07:30N 37°36' W 009°46'2920.1
2018-Apr-15 06:03N 38°04' W 009°55'220.1
2018-Apr-15 05:58N 38°06' W 009°55'919.9
2018-Apr-15 05:30N 38°15' W 009°58'1019.8
2018-Apr-15 05:00N 38°25' W 010°01'1020.2
2018-Apr-15 04:29N 38°35' W 010°04'1020.1
2018-Apr-15 04:01N 38°44' W 010°07'1020.2
2018-Apr-15 03:30N 38°54' W 010°06'1020.2
2018-Apr-15 03:01N 39°04' W 010°08'1019.9
2018-Apr-15 02:29N 39°15' W 010°08'61219.1
2018-Apr-13 18:24N 48°56' W 005°43'1218.4
2018-Apr-13 17:46N 49°02' W 005°28'9418.2
2018-Apr-13 12:37N 49°48' W 003°23'820.8
2018-Apr-13 12:13N 49°51' W 003°11'721.3
2018-Apr-13 11:52N 49°55' W 003°01'1021.3
2018-Apr-13 11:25N 49°59' W 002°47'1021.6
2018-Apr-13 10:59N 50°02' W 002°33'1021.4
2018-Apr-13 10:30N 50°04' W 002°17'1120.8
2018-Apr-13 09:59N 50°08' W 002°01'1020.3
2018-Apr-13 09:31N 50°11' W 001°48'918.9
2018-Apr-13 09:00N 50°12' W 001°33'816.7
2018-Apr-13 08:30N 50°15' W 001°20'3915.4
2018-Apr-13 05:59N 50°25' W 000°22'816.0
2018-Apr-13 05:30N 50°27' W 000°10'816.5
2018-Apr-13 05:00N 50°30' E 000°02'817.0
2018-Apr-13 04:30N 50°32' E 000°15'917.6
2018-Apr-13 04:00N 50°35' E 000°28'917.8
2018-Apr-13 03:30N 50°38' E 000°41'918.4
2018-Apr-13 03:00N 50°44' E 000°52'918.3
2018-Apr-13 02:30N 50°50' E 001°03'918.1
2018-Apr-13 02:00N 50°57' E 001°13'1217.3
2018-Apr-13 01:18N 51°05' E 001°28'516.6
2018-Apr-13 01:00N 51°08' E 001°34'816.0
2018-Apr-13 00:30N 51°12' E 001°45'815.9
2018-Apr-13 00:01N 51°19' E 001°52'815.4
2018-Apr-12 23:31N 51°25' E 001°60'816.1
2018-Apr-12 23:00N 51°22' E 002°12'714.8
2018-Apr-12 22:30N 51°22' E 002°24'510.7
2018-Apr-12 21:59N 51°23' E 002°32'713.6
2018-Apr-12 21:28N 51°23' E 002°43'613.1
2018-Apr-12 21:00N 51°23' E 002°53'917.8
2018-Apr-12 20:30N 51°24' E 003°07'918.1
2018-Apr-12 20:00N 51°24' E 003°22'816.3
2018-Apr-12 19:30N 51°26' E 003°35'5 9.3
2018-Apr-12 19:00N 51°26' E 003°42'713.5
2018-Apr-12 18:30N 51°21' E 003°50'714.1
2018-Apr-12 18:00N 51°25' E 003°58'5 9.6
2018-Apr-12 17:30N 51°22' E 004°04'612.5
2018-Apr-12 17:00N 51°21' E 004°14'4 7.8
2018-Apr-12 16:30N 51°18' E 004°16'0 0.0
2018-Apr-12 15:59N 51°18' E 004°16'0 0.0
2018-Apr-12 15:29N 51°18' E 004°16'0 0.0
2018-Apr-12 14:59N 51°18' E 004°16'0 0.0
2018-Apr-12 14:29N 51°18' E 004°16'0 0.0
2018-Apr-12 13:59N 51°18' E 004°16'0 0.0
2018-Apr-12 13:29N 51°18' E 004°16'0 0.0
2018-Apr-12 12:59N 51°18' E 004°16'0 0.0
2018-Apr-12 12:29N 51°18' E 004°16'0 0.0
2018-Apr-12 11:59N 51°18' E 004°16'0 0.0
2018-Apr-12 11:29N 51°18' E 004°16'0 0.0
2018-Apr-12 10:59N 51°18' E 004°16'0 0.0
2018-Apr-12 10:29N 51°18' E 004°16'0 0.0
2018-Apr-12 09:59N 51°18' E 004°16'0 0.0
2018-Apr-12 09:29N 51°18' E 004°16'0 0.0
2018-Apr-12 08:59N 51°18' E 004°16'0 0.0
2018-Apr-12 08:29N 51°18' E 004°16'0 0.0
2018-Apr-12 07:59N 51°18' E 004°16'0 0.0
2018-Apr-12 07:29N 51°18' E 004°16'0 0.0
2018-Apr-12 06:59N 51°18' E 004°16'0 0.0
2018-Apr-12 06:29N 51°18' E 004°16'0 0.0
2018-Apr-12 05:59N 51°18' E 004°16'0 0.0
2018-Apr-12 05:26N 51°18' E 004°16'0 0.0
2018-Apr-12 04:59N 51°18' E 004°16'0 0.0
2018-Apr-12 04:29N 51°18' E 004°16'0 0.0
2018-Apr-12 04:00N 51°18' E 004°16'1 1.0
2018-Apr-12 03:30N 51°18' E 004°16'3 5.6
2018-Apr-12 03:00N 51°21' E 004°15'4 7.8
2018-Apr-12 02:31N 51°23' E 004°10'510.0
2018-Apr-12 02:00N 51°24' E 004°02'4 7.2
2018-Apr-12 01:30N 51°23' E 003°57'612.9
2018-Apr-12 01:00N 51°21' E 003°47'713.5
2018-Apr-12 00:30N 51°26' E 003°39'510.6
2018-Apr-12 00:00N 51°25' E 003°31'816.5
2018-Apr-11 23:30N 51°24' E 003°18'918.2
2018-Apr-11 23:00N 51°25' E 003°03'510.9
2018-Apr-11 22:30N 51°30' E 003°04'816.3
2018-Apr-11 22:00N 51°37' E 003°11'815.7
2018-Apr-11 21:30N 51°45' E 003°15'4 6.1
2018-Apr-11 20:55N 51°46' E 003°20'0 0.0
2018-Apr-11 15:55N 51°46' E 003°20'0 0.0
2018-Apr-11 15:27N 51°46' E 003°20'0 0.1
2018-Apr-11 14:40N 51°46' E 003°20'0 0.3
2018-Apr-11 13:54N 51°47' E 003°20'0 0.0
2018-Apr-11 12:48N 51°47' E 003°20'0 0.0
2018-Apr-11 10:54N 51°47' E 003°20'0 0.0
2018-Apr-11 10:13N 51°47' E 003°20'0 0.0
2018-Apr-11 09:52N 51°47' E 003°20'0 0.1
2018-Apr-11 09:27N 51°47' E 003°20'0 0.1
2018-Apr-11 09:00N 51°47' E 003°20'0 0.2
2018-Apr-11 08:27N 51°46' E 003°20'0 0.1
2018-Apr-11 07:54N 51°46' E 003°20'0 0.1
2018-Apr-11 07:12N 51°46' E 003°20'0 0.1
2018-Apr-11 06:57N 51°46' E 003°20'0 0.0
2018-Apr-11 06:27N 51°46' E 003°20'0 0.0
2018-Apr-11 05:15N 51°46' E 003°20'0 0.0
2018-Apr-11 04:48N 51°46' E 003°20'0 0.0
2018-Apr-11 04:30N 51°46' E 003°20'0 0.0
2018-Apr-11 04:00N 51°46' E 003°20'0 0.1
2018-Apr-11 01:12N 51°47' E 003°20'0 0.0
2018-Apr-10 20:15N 51°46' E 003°20'0 0.1
2018-Apr-10 19:09N 51°46' E 003°20'0 0.1
2018-Apr-10 18:54N 51°46' E 003°20'0 0.0
2018-Apr-10 17:33N 51°46' E 003°20'0 0.0
2018-Apr-10 17:19N 51°46' E 003°20'0 0.0
2018-Apr-10 14:48N 51°46' E 003°20'  
Track history (hours):
 
Tides and Currents Weather Stations Pressure Air Temp Water Temp Dewpoint Dewpoint Depression Visibility Wind Speed Wind Dir Waves Ship Positions

Ardmore Capella

Last reported at 2018-Apr-20 11:37 UTC. Time now 2018-Apr-21 15:34 UTC.
Position N 37°45' E 024°18'.

Length 144 m; draft 6 m.

Type: Ship. MMSI: 538004321.

Date/timePositionNaut miles runAvg speedWind from/ knotsBaromVisibWave heightAir tempDewpointWater temp
2018-Apr-20 11:37N 37°45' E 024°18'1711.0
2018-Apr-20 10:03N 37°36' E 023°59'011.3
2018-Apr-20 10:00N 37°36' E 023°58'611.5
2018-Apr-20 09:30N 37°37' E 023°51'611.5
2018-Apr-20 09:00N 37°38' E 023°44'611.9
2018-Apr-20 08:30N 37°43' E 023°40'612.0
2018-Apr-20 08:00N 37°49' E 023°37'611.7
2018-Apr-20 07:30N 37°54' E 023°37'3 5.7
2018-Apr-20 06:59N 37°57' E 023°36'0 0.0
2018-Apr-20 06:29N 37°57' E 023°36'0 0.0
2018-Apr-20 05:59N 37°57' E 023°36'0 0.0
2018-Apr-20 05:29N 37°57' E 023°36'0 0.0
2018-Apr-20 04:59N 37°57' E 023°36'0 0.0
2018-Apr-20 04:29N 37°57' E 023°36'0 0.0
2018-Apr-20 03:59N 37°57' E 023°36'0 0.0
2018-Apr-20 03:29N 37°57' E 023°36'0 0.0
2018-Apr-20 02:59N 37°57' E 023°36'0 0.0
2018-Apr-20 02:29N 37°57' E 023°36'0 0.0
2018-Apr-20 01:59N 37°57' E 023°36'0 0.0
2018-Apr-20 01:23N 37°57' E 023°36'0 0.0
2018-Apr-20 00:59N 37°57' E 023°36'0 0.0
2018-Apr-20 00:26N 37°57' E 023°36'0 0.0
2018-Apr-19 23:59N 37°57' E 023°36'0 0.0
2018-Apr-19 23:29N 37°57' E 023°36'0 0.0
2018-Apr-19 22:59N 37°57' E 023°36'0 0.0
2018-Apr-19 22:26N 37°57' E 023°36'0 0.0
2018-Apr-19 21:59N 37°57' E 023°36'0 0.0
2018-Apr-19 21:29N 37°57' E 023°36'0 0.0
2018-Apr-19 20:59N 37°57' E 023°36'0 0.0
2018-Apr-19 20:26N 37°57' E 023°36'0 0.0
2018-Apr-19 19:59N 37°57' E 023°36'0 0.0
2018-Apr-19 19:29N 37°57' E 023°36'0 0.0
2018-Apr-19 18:56N 37°57' E 023°36'0 0.0
2018-Apr-19 18:29N 37°57' E 023°36'0 0.0
2018-Apr-19 17:59N 37°57' E 023°36'0 0.0
2018-Apr-19 17:29N 37°57' E 023°36'0 0.0
2018-Apr-19 16:59N 37°57' E 023°36'0 0.0
2018-Apr-19 16:29N 37°57' E 023°36'0 0.0
2018-Apr-19 15:59N 37°57' E 023°36'0 0.0
2018-Apr-19 15:29N 37°57' E 023°36'0 0.0
2018-Apr-19 14:59N 37°57' E 023°36'0 0.0
2018-Apr-19 14:29N 37°57' E 023°36'0 0.0
2018-Apr-19 13:59N 37°57' E 023°36'0 0.0
2018-Apr-19 13:29N 37°57' E 023°36'0 0.0
2018-Apr-19 12:59N 37°57' E 023°36'0 0.0
2018-Apr-19 12:29N 37°57' E 023°36'0 0.0
2018-Apr-19 11:53N 37°57' E 023°36'0 0.0
2018-Apr-19 11:29N 37°57' E 023°36'0 0.0
2018-Apr-19 10:56N 37°57' E 023°36'0 0.0
2018-Apr-19 10:29N 37°57' E 023°36'0 0.0
2018-Apr-19 09:56N 37°57' E 023°36'0 0.0
2018-Apr-19 09:29N 37°57' E 023°36'0 0.0
2018-Apr-19 08:56N 37°57' E 023°36'0 0.0
2018-Apr-19 08:29N 37°57' E 023°36'0 0.0
2018-Apr-19 07:59N 37°57' E 023°36'0 0.0
2018-Apr-19 07:26N 37°57' E 023°36'0 0.0
2018-Apr-19 06:59N 37°57' E 023°36'0 0.0
2018-Apr-19 06:30N 37°57' E 023°36'1 2.3
2018-Apr-19 06:00N 37°56' E 023°36'3 6.5
2018-Apr-19 05:30N 37°53' E 023°37'2 3.3
2018-Apr-19 05:00N 37°52' E 023°39'0 0.9
2018-Apr-19 04:30N 37°53' E 023°39'0 0.8
2018-Apr-19 04:00N 37°53' E 023°38'0 0.7
2018-Apr-19 03:30N 37°53' E 023°38'0 0.6
2018-Apr-19 03:00N 37°54' E 023°38'0 1.0
2018-Apr-19 02:30N 37°53' E 023°38'2 4.0
2018-Apr-19 02:00N 37°51' E 023°39'3 6.6
2018-Apr-19 01:30N 37°48' E 023°41'3 6.6
2018-Apr-19 01:00N 37°45' E 023°42'3 6.7
2018-Apr-19 00:30N 37°42' E 023°44'713.2
2018-Apr-19 00:00N 37°36' E 023°44'815.8
2018-Apr-18 23:30N 37°28' E 023°42'816.1
2018-Apr-18 23:00N 37°20' E 023°38'816.0
2018-Apr-18 22:30N 37°13' E 023°34'816.3
2018-Apr-18 22:00N 37°05' E 023°30'39918.1
2018-Apr-17 23:59N 36°29' E 015°14'1020.0
2018-Apr-17 23:30N 36°28' E 015°02'1020.3
2018-Apr-17 23:00N 36°28' E 014°49'1020.3
2018-Apr-17 22:30N 36°28' E 014°37'1020.2
2018-Apr-17 22:00N 36°31' E 014°25'1020.2
2018-Apr-17 21:30N 36°34' E 014°13'1020.0
2018-Apr-17 21:00N 36°37' E 014°01'1020.1
2018-Apr-17 20:30N 36°40' E 013°49'1120.8
2018-Apr-17 20:00N 36°42' E 013°36'1020.1
2018-Apr-17 19:30N 36°45' E 013°24'917.9
2018-Apr-17 19:00N 36°47' E 013°13'1019.7
2018-Apr-17 18:29N 36°50' E 013°01'1322.1
2018-Apr-17 17:55N 36°54' E 012°46'716.8
2018-Apr-17 17:30N 36°56' E 012°38'1020.8
2018-Apr-17 17:00N 36°58' E 012°25'83719.3
2018-Apr-15 21:43N 36°03' W 004°54'921.1
2018-Apr-15 21:16N 36°01' W 005°06'620.7
2018-Apr-15 20:58N 35°59' W 005°13'4 9.4
2018-Apr-15 20:30N 35°58' W 005°18'815.3
2018-Apr-15 20:00N 35°56' W 005°27'22618.6
2018-Apr-15 07:53N 37°29' W 009°44'820.0
2018-Apr-15 07:30N 37°36' W 009°46'2920.1
2018-Apr-15 06:03N 38°04' W 009°55'220.1
2018-Apr-15 05:58N 38°06' W 009°55'919.9
2018-Apr-15 05:30N 38°15' W 009°58'1019.8
2018-Apr-15 05:00N 38°25' W 010°01'1020.2
2018-Apr-15 04:29N 38°35' W 010°04'1020.1
2018-Apr-15 04:01N 38°44' W 010°07'1020.2
2018-Apr-15 03:30N 38°54' W 010°06'1020.2
2018-Apr-15 03:01N 39°04' W 010°08'1019.9
2018-Apr-15 02:29N 39°15' W 010°08'61219.1
2018-Apr-13 18:24N 48°56' W 005°43'1218.4
2018-Apr-13 17:46N 49°02' W 005°28'9418.2
2018-Apr-13 12:37N 49°48' W 003°23'820.8
2018-Apr-13 12:13N 49°51' W 003°11'721.3
2018-Apr-13 11:52N 49°55' W 003°01'1021.3
2018-Apr-13 11:25N 49°59' W 002°47'1021.6
2018-Apr-13 10:59N 50°02' W 002°33'1021.4
2018-Apr-13 10:30N 50°04' W 002°17'1120.8
2018-Apr-13 09:59N 50°08' W 002°01'1020.3
2018-Apr-13 09:31N 50°11' W 001°48'918.9
2018-Apr-13 09:00N 50°12' W 001°33'816.7
2018-Apr-13 08:30N 50°15' W 001°20'3915.4
2018-Apr-13 05:59N 50°25' W 000°22'816.0
2018-Apr-13 05:30N 50°27' W 000°10'816.5
2018-Apr-13 05:00N 50°30' E 000°02'817.0
2018-Apr-13 04:30N 50°32' E 000°15'917.6
2018-Apr-13 04:00N 50°35' E 000°28'917.8
2018-Apr-13 03:30N 50°38' E 000°41'918.4
2018-Apr-13 03:00N 50°44' E 000°52'918.3
2018-Apr-13 02:30N 50°50' E 001°03'918.1
2018-Apr-13 02:00N 50°57' E 001°13'1217.3
2018-Apr-13 01:18N 51°05' E 001°28'516.6
2018-Apr-13 01:00N 51°08' E 001°34'816.0
2018-Apr-13 00:30N 51°12' E 001°45'815.9
2018-Apr-13 00:01N 51°19' E 001°52'815.4
2018-Apr-12 23:31N 51°25' E 001°60'816.1
2018-Apr-12 23:00N 51°22' E 002°12'714.8
2018-Apr-12 22:30N 51°22' E 002°24'510.7
2018-Apr-12 21:59N 51°23' E 002°32'713.6
2018-Apr-12 21:28N 51°23' E 002°43'613.1
2018-Apr-12 21:00N 51°23' E 002°53'917.8
2018-Apr-12 20:30N 51°24' E 003°07'918.1
2018-Apr-12 20:00N 51°24' E 003°22'816.3
2018-Apr-12 19:30N 51°26' E 003°35'5 9.3
2018-Apr-12 19:00N 51°26' E 003°42'713.5
2018-Apr-12 18:30N 51°21' E 003°50'714.1
2018-Apr-12 18:00N 51°25' E 003°58'5 9.6
2018-Apr-12 17:30N 51°22' E 004°04'612.5
2018-Apr-12 17:00N 51°21' E 004°14'4 7.8
2018-Apr-12 16:30N 51°18' E 004°16'0 0.0
2018-Apr-12 15:59N 51°18' E 004°16'0 0.0
2018-Apr-12 15:29N 51°18' E 004°16'0 0.0
2018-Apr-12 14:59N 51°18' E 004°16'0 0.0
2018-Apr-12 14:29N 51°18' E 004°16'0 0.0
2018-Apr-12 13:59N 51°18' E 004°16'0 0.0
2018-Apr-12 13:29N 51°18' E 004°16'0 0.0
2018-Apr-12 12:59N 51°18' E 004°16'0 0.0
2018-Apr-12 12:29N 51°18' E 004°16'0 0.0
2018-Apr-12 11:59N 51°18' E 004°16'0 0.0
2018-Apr-12 11:29N 51°18' E 004°16'0 0.0
2018-Apr-12 10:59N 51°18' E 004°16'0 0.0
2018-Apr-12 10:29N 51°18' E 004°16'0 0.0
2018-Apr-12 09:59N 51°18' E 004°16'0 0.0
2018-Apr-12 09:29N 51°18' E 004°16'0 0.0
2018-Apr-12 08:59N 51°18' E 004°16'0 0.0
2018-Apr-12 08:29N 51°18' E 004°16'0 0.0
2018-Apr-12 07:59N 51°18' E 004°16'0 0.0
2018-Apr-12 07:29N 51°18' E 004°16'0 0.0
2018-Apr-12 06:59N 51°18' E 004°16'0 0.0
2018-Apr-12 06:29N 51°18' E 004°16'0 0.0
2018-Apr-12 05:59N 51°18' E 004°16'0 0.0
2018-Apr-12 05:26N 51°18' E 004°16'0 0.0
2018-Apr-12 04:59N 51°18' E 004°16'0 0.0
2018-Apr-12 04:29N 51°18' E 004°16'0 0.0
2018-Apr-12 04:00N 51°18' E 004°16'1 1.0
2018-Apr-12 03:30N 51°18' E 004°16'3 5.6
2018-Apr-12 03:00N 51°21' E 004°15'4 7.8
2018-Apr-12 02:31N 51°23' E 004°10'510.0
2018-Apr-12 02:00N 51°24' E 004°02'4 7.2
2018-Apr-12 01:30N 51°23' E 003°57'612.9
2018-Apr-12 01:00N 51°21' E 003°47'713.5
2018-Apr-12 00:30N 51°26' E 003°39'510.6
2018-Apr-12 00:00N 51°25' E 003°31'816.5
2018-Apr-11 23:30N 51°24' E 003°18'918.2
2018-Apr-11 23:00N 51°25' E 003°03'510.9
2018-Apr-11 22:30N 51°30' E 003°04'816.3
2018-Apr-11 22:00N 51°37' E 003°11'815.7
2018-Apr-11 21:30N 51°45' E 003°15'4 6.1
2018-Apr-11 20:55N 51°46' E 003°20'0 0.0
2018-Apr-11 15:55N 51°46' E 003°20'0 0.0
2018-Apr-11 15:27N 51°46' E 003°20'0 0.1
2018-Apr-11 14:40N 51°46' E 003°20'0 0.3
2018-Apr-11 13:54N 51°47' E 003°20'0 0.0
2018-Apr-11 12:48N 51°47' E 003°20'0 0.0
2018-Apr-11 10:54N 51°47' E 003°20'0 0.0
2018-Apr-11 10:13N 51°47' E 003°20'0 0.0
2018-Apr-11 09:52N 51°47' E 003°20'0 0.1
2018-Apr-11 09:27N 51°47' E 003°20'0 0.1
2018-Apr-11 09:00N 51°47' E 003°20'0 0.2
2018-Apr-11 08:27N 51°46' E 003°20'0 0.1
2018-Apr-11 07:54N 51°46' E 003°20'0 0.1
2018-Apr-11 07:12N 51°46' E 003°20'0 0.1
2018-Apr-11 06:57N 51°46' E 003°20'0 0.0
2018-Apr-11 06:27N 51°46' E 003°20'0 0.0
2018-Apr-11 05:15N 51°46' E 003°20'0 0.0
2018-Apr-11 04:48N 51°46' E 003°20'0 0.0
2018-Apr-11 04:30N 51°46' E 003°20'0 0.0
2018-Apr-11 04:00N 51°46' E 003°20'0 0.1
2018-Apr-11 01:12N 51°47' E 003°20'0 0.0
2018-Apr-10 20:15N 51°46' E 003°20'0 0.1
2018-Apr-10 19:09N 51°46' E 003°20'0 0.1
2018-Apr-10 18:54N 51°46' E 003°20'0 0.0
2018-Apr-10 17:33N 51°46' E 003°20'0 0.0
2018-Apr-10 17:19N 51°46' E 003°20'0 0.0
2018-Apr-10 14:48N 51°46' E 003°20'  

Dump ship's entire track history